Time;durP1;ratioP1;P1;durP2;ratioP2;P2;SDS_P1;SDS_P2;PMS_P1;PMS_P2;Temp;Humidity;BMP_temperature;BMP_pressure;BME280_temperature;BME280_humidity;BME280_pressure;Samples;Min_cycle;Max_cycle;Signal;HPM_P1;HPM_P2
2023/01/28 00:01:48;;;;;;;13.37;8.77;;;2.90;99.90;;;;;;5028892;28;20072;-50
2023/01/28 00:04:14;;;;;;;12.00;8.77;;;2.80;99.90;;;;;;5029368;28;20033;-50
2023/01/28 00:06:40;;;;;;;12.90;8.80;;;2.80;99.90;;;;;;5028900;28;20033;-47
2023/01/28 00:09:06;;;;;;;12.67;9.10;;;2.80;99.90;;;;;;5029638;28;20033;-47
2023/01/28 00:11:32;;;;;;;12.33;8.53;;;2.70;99.90;;;;;;5028214;28;20374;-51
2023/01/28 00:13:58;;;;;;;14.00;9.07;;;2.70;99.90;;;;;;5029012;28;20025;-45
2023/01/28 00:16:25;;;;;;;14.67;9.30;;;2.70;99.90;;;;;;5027877;28;20037;-47
2023/01/28 00:18:52;;;;;;;13.27;8.97;;;2.70;99.90;;;;;;5028979;28;20030;-46
2023/01/28 00:21:18;;;;;;;14.23;9.37;;;2.70;99.90;;;;;;5028405;28;20037;-47
2023/01/28 00:23:51;;;;;;;13.87;9.47;;;2.60;99.90;;;;;;5028840;28;20102;-50
2023/01/28 00:26:17;;;;;;;14.97;9.40;;;2.70;99.90;;;;;;5027649;28;20067;-49
2023/01/28 00:28:44;;;;;;;13.93;8.67;;;2.60;99.90;;;;;;5027710;28;20071;-48
2023/01/28 00:31:18;;;;;;;14.03;9.67;;;2.60;99.90;;;;;;5028612;28;20406;-45
2023/01/28 00:33:45;;;;;;;16.07;10.67;;;2.60;99.90;;;;;;5028983;28;20648;-46
2023/01/28 00:36:12;;;;;;;17.97;10.50;;;2.60;99.90;;;;;;5028581;28;20125;-46
2023/01/28 00:38:37;;;;;;;18.20;11.60;;;2.50;99.90;;;;;;5027393;28;20037;-46
2023/01/28 00:41:16;;;;;;;16.03;11.17;;;2.50;99.90;;;;;;5027465;28;20163;-46
2023/01/28 00:43:43;;;;;;;18.50;11.50;;;2.50;99.90;;;;;;5027407;28;20025;-46
2023/01/28 00:46:10;;;;;;;17.87;12.33;;;2.50;99.90;;;;;;5028866;28;20446;-48
2023/01/28 00:48:37;;;;;;;20.97;12.47;;;2.40;99.90;;;;;;5028895;28;20104;-46
2023/01/28 00:51:05;;;;;;;19.17;12.40;;;2.40;99.90;;;;;;5028939;28;20109;-50
2023/01/28 00:53:33;;;;;;;20.07;12.33;;;2.30;99.90;;;;;;5028722;28;20402;-46
2023/01/28 00:55:59;;;;;;;18.63;11.57;;;2.40;99.90;;;;;;5027191;28;20034;-45
2023/01/28 00:58:25;;;;;;;22.57;12.37;;;2.40;99.90;;;;;;5027757;28;20108;-45
2023/01/28 01:00:51;;;;;;;21.27;12.17;;;2.40;99.90;;;;;;5028708;28;20226;-46
2023/01/28 01:03:18;;;;;;;20.93;12.53;;;2.50;99.90;;;;;;5028587;28;20026;-45
2023/01/28 01:05:44;;;;;;;18.17;11.97;;;2.50;99.90;;;;;;5028853;28;20021;-45
2023/01/28 01:08:10;;;;;;;22.23;13.50;;;2.40;99.90;;;;;;5028350;28;20454;-46
2023/01/28 01:10:37;;;;;;;20.27;12.23;;;2.40;99.90;;;;;;5028725;28;20064;-47
2023/01/28 01:13:05;;;;;;;18.80;11.48;;;2.40;99.90;;;;;;5027721;28;20029;-46
2023/01/28 01:15:31;;;;;;;20.50;12.43;;;2.40;99.90;;;;;;5028579;28;20034;-46
2023/01/28 01:17:57;;;;;;;19.13;12.50;;;2.40;99.90;;;;;;5028230;28;20029;-45
2023/01/28 01:20:32;;;;;;;18.20;12.13;;;2.40;99.90;;;;;;5027354;28;20102;-45
2023/01/28 01:22:58;;;;;;;19.70;12.60;;;2.40;99.90;;;;;;5026970;28;20585;-45
2023/01/28 01:25:25;;;;;;;22.67;13.40;;;2.30;99.90;;;;;;5027025;28;20030;-45
2023/01/28 01:27:51;;;;;;;22.73;13.93;;;2.30;99.90;;;;;;5026498;28;20030;-45
2023/01/28 01:30:17;;;;;;;22.87;14.20;;;2.30;99.90;;;;;;5030985;28;20540;-47
2023/01/28 01:32:42;;;;;;;20.10;13.50;;;2.40;99.90;;;;;;5030567;28;20113;-45
2023/01/28 01:35:09;;;;;;;21.37;14.53;;;2.40;99.90;;;;;;5032172;28;20112;-45
2023/01/28 01:37:36;;;;;;;19.00;13.00;;;2.40;99.90;;;;;;5031623;28;20037;-46
2023/01/28 01:40:03;;;;;;;24.23;14.67;;;2.40;99.90;;;;;;5030960;28;20489;-46
2023/01/28 01:42:31;;;;;;;22.47;14.63;;;2.40;99.90;;;;;;5031208;28;20065;-46
2023/01/28 01:45:06;;;;;;;19.17;13.00;;;2.30;99.90;;;;;;5032299;28;20037;-45
2023/01/28 01:47:42;;;;;;;16.63;11.23;;;2.30;99.90;;;;;;5031614;28;20021;-47
2023/01/28 01:50:31;;;;;;;15.40;8.90;;;2.30;99.90;;;;;;5032079;28;20588;-45
2023/01/28 01:53:03;;;;;;;11.77;7.43;;;2.30;99.90;;;;;;5030482;28;20030;-45
2023/01/28 01:55:33;;;;;;;10.83;7.00;;;2.30;99.90;;;;;;5031793;28;20022;-45
2023/01/28 01:58:04;;;;;;;9.43;6.17;;;2.20;99.90;;;;;;5030598;28;20038;-45
2023/01/28 02:00:30;;;;;;;9.57;6.53;;;2.20;99.90;;;;;;5030328;28;20049;-47
2023/01/28 02:02:57;;;;;;;9.33;5.87;;;2.20;99.90;;;;;;5030265;28;20034;-49
2023/01/28 02:05:23;;;;;;;7.63;5.50;;;2.20;99.90;;;;;;5031347;28;20037;-47
2023/01/28 02:08:19;;;;;;;10.70;5.77;;;2.10;99.90;;;;;;5031234;28;20030;-47
2023/01/28 02:10:38;;;;;;;7.47;5.55;;;2.10;99.90;;;;;;5029588;28;20037;-50
2023/01/28 02:13:04;;;;;;;11.97;6.27;;;2.10;99.90;;;;;;5030295;28;20033;-47
2023/01/28 02:15:30;;;;;;;9.90;5.73;;;2.00;99.90;;;;;;5031330;28;20029;-48
2023/01/28 02:17:56;;;;;;;7.90;5.70;;;2.00;99.90;;;;;;5030835;28;20362;-48
2023/01/28 02:20:26;;;;;;;9.17;5.93;;;1.90;99.90;;;;;;5029657;28;20128;-47
2023/01/28 02:23:39;;;;;;;9.07;5.87;;;1.90;99.90;;;;;;5030937;28;20045;-45
2023/01/28 02:26:23;;;;;;;12.33;5.77;;;1.90;99.90;;;;;;4969738;28;20375;-47
2023/01/28 02:29:14;;;;;;;8.60;5.77;;;1.80;99.90;;;;;;5029653;28;20036;-49
2023/01/28 02:32:02;;;;;;;10.67;5.93;;;1.90;99.90;;;;;;5029345;28;20045;-45
2023/01/28 02:34:34;;;;;;;10.10;5.88;;;1.90;99.90;;;;;;5030926;28;20113;-47
2023/01/28 02:37:21;;;;;;;10.53;6.50;;;1.90;99.90;;;;;;5030600;28;20476;-44
2023/01/28 02:39:51;;;;;;;9.00;6.20;;;1.90;99.90;;;;;;5029098;28;20021;-49
2023/01/28 02:42:26;;;;;;;12.83;7.43;;;1.90;99.90;;;;;;5029258;28;20025;-45
2023/01/28 02:44:52;;;;;;;15.43;8.10;;;1.80;99.90;;;;;;5029246;28;20025;-48
2023/01/28 02:50:16;;;;;;;10.90;7.53;;;1.80;99.90;;;;;;5029448;28;20097;-47
2023/01/28 02:56:04;;;;;;;14.80;9.00;;;1.70;99.90;;;;;;5030438;28;20432;-47
2023/01/28 02:59:29;;;;;;;16.07;9.30;;;1.70;99.90;;;;;;5028075;28;20036;-46
2023/01/28 03:01:58;;;;;;;14.53;8.60;;;1.80;99.90;;;;;;5010612;28;20037;-46
2023/01/28 03:04:42;;;;;;;13.60;8.23;;;1.70;99.90;;;;;;5030485;28;20033;-45
2023/01/28 03:07:11;;;;;;;11.37;7.23;;;1.70;99.90;;;;;;5028514;28;20068;-49
2023/01/28 03:09:39;;;;;;;11.13;7.43;;;1.70;99.90;;;;;;5030423;28;20394;-44
2023/01/28 03:38:40;;;;;;;12.87;7.67;;;1.90;99.90;;;;;;4949872;29;20171;-54
2023/01/28 03:41:10;;;;;;;11.70;7.03;;;1.90;99.90;;;;;;4949994;29;20035;-56
2023/01/28 03:43:37;;;;;;;11.67;7.90;;;1.90;99.90;;;;;;4934064;29;20050;-54
2023/01/28 03:46:05;;;;;;;12.93;7.80;;;1.90;99.90;;;;;;4934114;29;20038;-53
2023/01/28 03:48:31;;;;;;;10.70;7.57;;;1.90;99.90;;;;;;4933946;29;20119;-54
2023/01/28 03:50:59;;;;;;;12.35;7.65;;;1.90;99.90;;;;;;4933367;29;20135;-56
2023/01/28 03:53:27;;;;;;;11.70;7.70;;;1.90;99.90;;;;;;4949755;29;20059;-54
2023/01/28 03:55:58;;;;;;;12.73;8.37;;;1.90;99.90;;;;;;4934003;28;20086;-54
2023/01/28 03:58:44;;;;;;;15.10;9.18;;;1.90;99.90;;;;;;4950226;29;20098;-54
2023/01/28 04:01:12;;;;;;;12.97;8.87;;;1.80;99.90;;;;;;4933517;29;20496;-54
2023/01/28 04:03:38;;;;;;;13.53;8.67;;;1.90;99.90;;;;;;4950972;29;20062;-55
2023/01/28 04:06:09;;;;;;;13.63;9.50;;;1.90;99.90;;;;;;4949668;28;20042;-53
2023/01/28 04:08:58;;;;;;;14.97;8.90;;;1.90;99.90;;;;;;4949719;29;20023;-55
2023/01/28 04:11:29;;;;;;;13.33;9.17;;;1.80;99.90;;;;;;4949774;29;20063;-55
2023/01/28 04:13:56;;;;;;;16.47;9.50;;;1.80;99.90;;;;;;4949383;29;20042;-53
2023/01/28 04:16:23;;;;;;;15.00;9.37;;;1.80;99.90;;;;;;4933137;29;20031;-54
2023/01/28 04:18:50;;;;;;;15.00;9.87;;;1.70;99.90;;;;;;4949470;29;20023;-56
2023/01/28 04:21:16;;;;;;;15.97;10.17;;;1.80;99.90;;;;;;4949391;29;20041;-55
2023/01/28 04:23:43;;;;;;;16.53;11.07;;;1.80;99.90;;;;;;4949571;29;20138;-54
2023/01/28 04:26:11;;;;;;;19.57;10.83;;;1.80;99.90;;;;;;4932866;29;20039;-54
2023/01/28 04:28:37;;;;;;;15.67;10.70;;;1.80;99.90;;;;;;4949065;29;20027;-55
2023/01/28 04:31:02;;;;;;;16.33;11.20;;;1.70;99.90;;;;;;4933704;29;20028;-54
2023/01/28 04:33:45;;;;;;;13.83;9.83;;;1.70;99.90;;;;;;4950954;29;20055;-54
2023/01/28 04:36:34;;;;;;;16.70;9.82;;;1.70;99.90;;;;;;4961500;28;20480;-54
2023/01/28 04:39:29;;;;;;;16.63;10.53;;;1.70;99.90;;;;;;4957368;28;20121;-55
2023/01/28 04:42:14;;;;;;;16.97;11.07;;;1.70;99.90;;;;;;4969056;28;20132;-54
2023/01/28 04:45:00;;;;;;;15.43;10.63;;;1.70;99.90;;;;;;4969501;28;20499;-55
2023/01/28 04:47:38;;;;;;;15.30;10.63;;;1.70;99.90;;;;;;4969866;28;20026;-55
2023/01/28 04:50:20;;;;;;;16.13;10.80;;;1.70;99.90;;;;;;4952970;28;20030;-55
2023/01/28 04:53:12;;;;;;;15.30;10.53;;;1.70;99.90;;;;;;4966071;28;20620;-55
2023/01/28 04:55:49;;;;;;;17.67;10.73;;;1.70;99.90;;;;;;4968733;28;20031;-54
2023/01/28 04:58:15;;;;;;;16.17;10.97;;;1.70;99.90;;;;;;4951209;28;20344;-54
2023/01/28 05:00:42;;;;;;;15.60;10.73;;;1.70;99.90;;;;;;4968550;28;20037;-54
2023/01/28 05:03:08;;;;;;;15.73;10.90;;;1.80;99.90;;;;;;4970938;28;20030;-55
2023/01/28 05:05:34;;;;;;;17.27;10.90;;;1.80;99.90;;;;;;4956297;28;20038;-55
2023/01/28 05:08:15;;;;;;;16.03;11.20;;;1.70;99.90;;;;;;4971942;28;20047;-54
2023/01/28 05:10:43;;;;;;;17.80;11.53;;;1.80;99.90;;;;;;4972145;28;20041;-55
2023/01/28 05:13:09;;;;;;;17.97;10.90;;;1.70;99.90;;;;;;4971095;28;20034;-54
2023/01/28 05:15:35;;;;;;;17.53;11.43;;;1.70;99.90;;;;;;4955963;28;20403;-55
2023/01/28 05:18:00;;;;;;;17.70;11.03;;;1.70;99.90;;;;;;4973056;28;20050;-55
2023/01/28 05:20:32;;;;;;;18.10;11.40;;;1.70;99.90;;;;;;4955994;28;20048;-55
2023/01/28 05:23:02;;;;;;;16.48;10.48;;;1.60;99.90;;;;;;4972039;28;20058;-55
2023/01/28 05:25:38;;;;;;;18.90;11.50;;;1.60;99.90;;;;;;4955806;28;20126;-54
2023/01/28 05:28:04;;;;;;;17.40;10.93;;;1.60;99.90;;;;;;4954584;28;20048;-55
2023/01/28 05:30:30;;;;;;;16.60;11.43;;;1.60;99.90;;;;;;4955934;28;20077;-55
2023/01/28 05:32:56;;;;;;;16.23;11.13;;;1.60;99.90;;;;;;4972810;28;20039;-53
2023/01/28 05:35:22;;;;;;;17.83;10.93;;;1.60;99.90;;;;;;4955742;28;20037;-55
2023/01/28 05:37:48;;;;;;;16.87;10.80;;;1.60;99.90;;;;;;4972694;28;20450;-54
2023/01/28 05:40:16;;;;;;;16.63;11.67;;;1.60;99.90;;;;;;4955637;28;20114;-54
2023/01/28 05:42:42;;;;;;;17.87;11.83;;;1.60;99.90;;;;;;4954506;28;20486;-54
2023/01/28 05:45:32;;;;;;;17.90;11.70;;;1.60;99.90;;;;;;4955464;28;20125;-55
2023/01/28 05:48:04;;;;;;;21.33;12.00;;;1.50;99.90;;;;;;4971325;28;20058;-55
2023/01/28 05:50:40;;;;;;;21.47;12.23;;;1.50;99.90;;;;;;4971722;28;20023;-55
2023/01/28 05:53:16;;;;;;;18.63;12.07;;;1.50;99.90;;;;;;4955304;28;20038;-54
2023/01/28 05:55:50;;;;;;;17.83;11.77;;;1.50;99.90;;;;;;4971328;28;20037;-55
2023/01/28 05:58:17;;;;;;;18.90;12.07;;;1.50;99.90;;;;;;4970101;28;20026;-54
2023/01/28 06:00:42;;;;;;;20.03;12.13;;;1.60;99.90;;;;;;4968025;28;20154;-53
2023/01/28 06:03:08;;;;;;;21.23;12.33;;;1.50;99.90;;;;;;4952213;28;20046;-54
2023/01/28 06:05:35;;;;;;;20.53;12.90;;;1.50;99.90;;;;;;4962979;28;20027;-55
2023/01/28 06:08:01;;;;;;;19.30;11.70;;;1.50;99.90;;;;;;4952501;28;20166;-55
2023/01/28 06:10:26;;;;;;;19.13;12.30;;;1.60;99.90;;;;;;4949546;28;20039;-54
2023/01/28 06:12:54;;;;;;;19.47;12.97;;;1.50;99.90;;;;;;4969955;28;20487;-55
2023/01/28 06:15:58;;;;;;;21.23;12.23;;;1.50;99.90;;;;;;4957829;28;20050;-46
2023/01/28 06:18:56;;;;;;;20.77;12.43;;;1.50;99.90;;;;;;4960853;28;20034;-46
2023/01/28 06:21:22;;;;;;;18.93;12.17;;;1.50;99.90;;;;;;4971872;28;20118;-54
2023/01/28 06:23:49;;;;;;;21.23;13.03;;;1.50;99.90;;;;;;4970815;28;20138;-56
2023/01/28 06:26:14;;;;;;;20.60;13.07;;;1.40;99.90;;;;;;4953770;28;20061;-55
2023/01/28 06:28:43;;;;;;;22.10;13.17;;;1.40;99.90;;;;;;4970920;28;20348;-51
2023/01/28 06:31:08;;;;;;;21.97;13.10;;;1.40;99.90;;;;;;4972418;28;20034;-54
2023/01/28 06:33:34;;;;;;;20.43;12.97;;;1.40;99.90;;;;;;4972283;28;20045;-54
2023/01/28 06:36:03;;;;;;;22.13;13.03;;;1.40;99.90;;;;;;4972387;28;20542;-54
2023/01/28 06:38:29;;;;;;;20.65;13.73;;;1.50;99.90;;;;;;4971518;28;20042;-54
2023/01/28 06:40:55;;;;;;;23.17;13.77;;;1.40;99.90;;;;;;4971876;28;20035;-54
2023/01/28 06:43:26;;;;;;;23.27;14.07;;;1.50;99.90;;;;;;4971040;28;20050;-52
2023/01/28 06:46:01;;;;;;;21.57;13.83;;;1.50;99.90;;;;;;4971846;28;20572;-54
2023/01/28 06:48:27;;;;;;;22.23;13.53;;;1.40;99.90;;;;;;4971814;28;20069;-53
2023/01/28 06:50:53;;;;;;;22.10;13.73;;;1.40;99.90;;;;;;4972132;28;20059;-54
2023/01/28 06:53:19;;;;;;;22.20;14.07;;;1.40;99.90;;;;;;4971653;28;20507;-54
2023/01/28 06:55:45;;;;;;;20.63;12.77;;;1.50;99.90;;;;;;4971937;28;20065;-53
2023/01/28 06:58:10;;;;;;;19.00;12.77;;;1.50;99.90;;;;;;4970723;28;20113;-54
2023/01/28 07:00:36;;;;;;;20.87;12.97;;;1.60;99.90;;;;;;4971570;28;20034;-54
2023/01/28 07:03:03;;;;;;;18.97;12.70;;;1.60;99.90;;;;;;4971606;28;20039;-55
2023/01/28 07:05:29;;;;;;;20.73;12.90;;;1.50;99.90;;;;;;4971575;28;20034;-54
2023/01/28 07:07:54;;;;;;;22.13;13.23;;;1.50;99.90;;;;;;4971149;28;20038;-55
2023/01/28 07:10:20;;;;;;;21.93;12.77;;;1.40;99.90;;;;;;4970286;28;20222;-53
2023/01/28 07:12:46;;;;;;;18.77;12.23;;;1.40;99.90;;;;;;4970245;28;20035;-55
2023/01/28 07:15:14;;;;;;;20.60;13.13;;;1.40;99.90;;;;;;4971318;28;20034;-54
2023/01/28 07:17:43;;;;;;;20.87;12.83;;;1.40;99.90;;;;;;4970742;28;20045;-55
2023/01/28 07:20:11;;;;;;;20.92;13.23;;;1.40;99.90;;;;;;4971333;28;20023;-54
2023/01/28 07:22:39;;;;;;;24.93;15.00;;;1.40;99.90;;;;;;4971327;28;20349;-53
2023/01/28 07:25:06;;;;;;;22.97;14.33;;;1.40;99.90;;;;;;4971081;28;20109;-54
2023/01/28 07:27:32;;;;;;;22.30;14.07;;;1.30;99.90;;;;;;4969997;28;20445;-53
2023/01/28 07:29:58;;;;;;;22.37;13.40;;;1.30;99.90;;;;;;4971172;28;20062;-53
2023/01/28 07:32:26;;;;;;;21.67;13.83;;;1.20;99.90;;;;;;4971146;28;20042;-53
2023/01/28 07:34:52;;;;;;;20.57;13.53;;;1.30;99.90;;;;;;4970866;28;20034;-54
2023/01/28 07:37:18;;;;;;;21.73;13.83;;;1.30;99.90;;;;;;4970643;28;20035;-52
2023/01/28 07:39:44;;;;;;;24.17;13.97;;;1.20;99.90;;;;;;4971143;28;20180;-54
2023/01/28 07:42:09;;;;;;;21.30;13.53;;;1.20;99.90;;;;;;4970104;28;20519;-53
2023/01/28 07:44:37;;;;;;;21.03;13.10;;;1.30;99.90;;;;;;4969628;28;20058;-54
2023/01/28 07:47:04;;;;;;;20.03;13.60;;;1.30;99.90;;;;;;4971030;28;20081;-54
2023/01/28 07:49:30;;;;;;;19.17;12.60;;;1.30;99.90;;;;;;4971126;28;20026;-53
2023/01/28 07:51:56;;;;;;;20.60;12.60;;;1.30;99.90;;;;;;4970913;28;20710;-54
2023/01/28 07:54:21;;;;;;;21.47;13.30;;;1.40;99.90;;;;;;4970663;28;20563;-53
2023/01/28 07:56:47;;;;;;;23.37;13.23;;;1.40;99.90;;;;;;4969377;28;20062;-55
2023/01/28 07:59:13;;;;;;;18.90;12.43;;;1.40;99.90;;;;;;4971097;28;20495;-55
2023/01/28 08:01:38;;;;;;;23.27;13.90;;;1.50;99.90;;;;;;4970718;28;20107;-52
2023/01/28 08:04:04;;;;;;;20.50;13.43;;;1.50;99.90;;;;;;4953391;28;20609;-55
2023/01/28 08:06:36;;;;;;;22.97;13.17;;;1.50;99.90;;;;;;4941417;28;20035;-53
2023/01/28 08:09:04;;;;;;;20.20;13.43;;;1.40;99.90;;;;;;4942321;29;20090;-54
2023/01/28 08:11:31;;;;;;;20.70;12.57;;;1.40;99.90;;;;;;4936244;29;20145;-53
2023/01/28 08:13:57;;;;;;;22.47;14.00;;;1.40;99.90;;;;;;4932039;29;20561;-55
2023/01/28 08:16:23;;;;;;;23.30;14.10;;;1.40;99.90;;;;;;4931894;29;20186;-55
2023/01/28 08:18:50;;;;;;;23.67;14.37;;;1.50;99.90;;;;;;4955554;28;20033;-54
2023/01/28 08:21:18;;;;;;;;;;;1.40;99.90;;;;;;4970721;28;20045;-54
2023/01/28 08:23:44;;;;;;;23.63;13.93;;;1.50;99.90;;;;;;4970157;28;20358;-53
2023/01/28 08:26:10;;;;;;;23.97;14.50;;;1.50;99.90;;;;;;4969609;28;20073;-52
2023/01/28 08:28:36;;;;;;;24.07;14.77;;;1.50;99.90;;;;;;4969507;28;20118;-51
2023/01/28 08:31:02;;;;;;;25.30;15.07;;;1.50;99.90;;;;;;4970736;28;20121;-51
2023/01/28 08:33:28;;;;;;;26.33;15.33;;;1.50;99.90;;;;;;4970165;28;20035;-52
2023/01/28 08:35:54;;;;;;;25.70;15.47;;;1.40;99.90;;;;;;4952751;28;20043;-53
2023/01/28 08:38:20;;;;;;;26.57;15.13;;;1.40;99.90;;;;;;4975099;28;20042;-52
2023/01/28 08:40:46;;;;;;;26.73;15.37;;;1.30;99.90;;;;;;4976682;28;20542;-56
2023/01/28 08:43:12;;;;;;;27.77;16.13;;;1.40;99.90;;;;;;4975771;28;20372;-51
2023/01/28 08:45:39;;;;;;;26.07;15.30;;;1.40;99.90;;;;;;4976736;28;20022;-53
2023/01/28 08:48:07;;;;;;;25.13;15.60;;;1.40;99.90;;;;;;4957427;28;20028;-57
2023/01/28 08:50:37;;;;;;;26.17;15.50;;;1.40;99.90;;;;;;4957323;28;20058;-56
2023/01/28 08:53:06;;;;;;;28.83;16.43;;;1.30;99.90;;;;;;4957102;28;20057;-54
2023/01/28 08:55:33;;;;;;;28.38;16.23;;;1.30;99.90;;;;;;4957453;29;20034;-51
2023/01/28 08:58:04;;;;;;;27.80;16.00;;;1.30;99.90;;;;;;4955911;28;20039;-53
2023/01/28 09:00:31;;;;;;;27.23;15.67;;;1.30;99.90;;;;;;4955839;28;20027;-51
2023/01/28 09:02:57;;;;;;;29.13;16.93;;;1.40;99.90;;;;;;4957168;28;20404;-52
2023/01/28 09:05:22;;;;;;;27.80;16.17;;;1.30;99.90;;;;;;4956682;29;20046;-52
2023/01/28 09:07:48;;;;;;;29.17;16.70;;;1.30;99.90;;;;;;4956313;28;20031;-51
2023/01/28 09:10:15;;;;;;;26.40;16.40;;;1.30;99.90;;;;;;4956976;28;20493;-52
2023/01/28 09:12:41;;;;;;;26.37;15.73;;;1.30;99.90;;;;;;4956058;28;20464;-52
2023/01/28 09:15:08;;;;;;;27.97;15.97;;;1.40;99.90;;;;;;4956906;28;20047;-53
2023/01/28 09:17:34;;;;;;;27.10;15.57;;;1.40;99.90;;;;;;4956592;28;20035;-49
2023/01/28 09:19:59;;;;;;;28.77;15.70;;;1.40;99.90;;;;;;4956869;29;20448;-51
2023/01/28 09:22:25;;;;;;;27.40;15.90;;;1.40;99.90;;;;;;4956848;28;20039;-53
2023/01/28 09:24:51;;;;;;;27.93;16.30;;;1.50;99.90;;;;;;4957034;28;20510;-53
2023/01/28 09:27:17;;;;;;;27.13;15.87;;;1.50;99.90;;;;;;4955852;28;20102;-53
2023/01/28 09:29:43;;;;;;;27.47;16.10;;;1.50;99.90;;;;;;4957258;28;20027;-54
2023/01/28 09:32:08;;;;;;;25.87;15.60;;;1.50;99.90;;;;;;4957039;28;20118;-53
2023/01/28 09:34:34;;;;;;;26.27;16.30;;;1.50;99.90;;;;;;4956888;28;20035;-53
2023/01/28 09:37:00;;;;;;;28.23;16.40;;;1.50;99.90;;;;;;5001106;23;20094;-49
2023/01/28 09:39:27;;;;;;;26.00;15.70;;;1.60;99.90;;;;;;5034876;28;20386;-47
2023/01/28 09:42:01;;;;;;;25.23;15.70;;;1.60;99.90;;;;;;5034171;28;20033;-49
2023/01/28 09:44:48;;;;;;;27.70;15.90;;;1.50;99.90;;;;;;5035165;28;20109;-49
2023/01/28 09:47:29;;;;;;;27.23;15.63;;;1.40;99.90;;;;;;5034550;28;20029;-51
2023/01/28 09:49:58;;;;;;;28.67;17.47;;;1.50;99.90;;;;;;5031248;28;20080;-48
2023/01/28 09:52:33;;;;;;;;;;;1.50;99.90;;;;;;5032448;28;20080;-50
2023/01/28 09:55:06;;;;;;;25.13;14.53;;;1.50;99.90;;;;;;5032040;28;19935;-50
2023/01/28 09:57:50;;;;;;;29.63;16.10;;;1.40;99.90;;;;;;5029197;28;20030;-50
2023/01/28 10:00:19;;;;;;;25.90;15.13;;;1.40;99.90;;;;;;5032306;28;20108;-49
2023/01/28 10:03:06;;;;;;;25.15;14.95;;;1.40;99.90;;;;;;5031645;28;20446;-51
2023/01/28 10:05:49;;;;;;;24.70;15.33;;;1.50;99.90;;;;;;5031463;28;20033;-49
2023/01/28 10:08:16;;;;;;;24.43;15.30;;;1.60;99.90;;;;;;5031361;28;20025;-47
2023/01/28 10:10:50;;;;;;;26.23;15.00;;;1.60;99.90;;;;;;5032014;28;20052;-50
2023/01/28 10:13:16;;;;;;;24.27;14.43;;;1.60;99.90;;;;;;5030347;28;20120;-52
2023/01/28 10:16:00;;;;;;;23.60;14.50;;;1.70;99.90;;;;;;5043539;28;20112;-50
2023/01/28 10:18:45;;;;;;;29.10;14.57;;;1.80;99.90;;;;;;5030917;28;20029;-54
2023/01/28 10:21:28;;;;;;;22.90;14.40;;;2.10;99.90;;;;;;5031452;28;20420;-50
2023/01/28 10:24:10;;;;;;;22.60;13.80;;;2.30;99.90;;;;;;5031374;28;20021;-53
2023/01/28 10:26:39;;;;;;;25.33;14.07;;;2.60;99.90;;;;;;5030025;28;20099;-51
2023/01/28 10:29:18;;;;;;;22.75;13.80;;;2.60;99.90;;;;;;5031607;28;20021;-52
2023/01/28 10:31:52;;;;;;;25.60;14.10;;;2.60;99.90;;;;;;5031223;28;20037;-55
2023/01/28 10:34:18;;;;;;;23.37;14.40;;;2.70;99.90;;;;;;5031309;28;20056;-58
2023/01/28 10:36:44;;;;;;;22.07;14.30;;;2.60;99.90;;;;;;5030050;28;20528;-50
2023/01/28 10:39:14;;;;;;;22.63;14.83;;;2.60;99.90;;;;;;5031426;28;20116;-51
2023/01/28 10:41:40;;;;;;;23.50;14.40;;;2.60;99.90;;;;;;5030228;28;20033;-56
2023/01/28 10:44:14;;;;;;;21.03;14.07;;;2.70;99.90;;;;;;5030733;28;20460;-54
2023/01/28 10:46:44;;;;;;;22.93;13.83;;;2.90;99.90;;;;;;5030561;28;20104;-53
2023/01/28 10:49:18;;;;;;;22.87;13.60;;;3.00;99.90;;;;;;5031059;28;20037;-53
2023/01/28 10:51:44;;;;;;;23.33;13.50;;;2.90;99.90;;;;;;5030890;28;20036;-55
2023/01/28 10:54:27;;;;;;;23.23;14.20;;;3.00;99.90;;;;;;5031015;28;20021;-53
2023/01/28 10:56:57;;;;;;;23.90;14.13;;;2.90;99.90;;;;;;5029451;28;20069;-53
2023/01/28 10:59:30;;;;;;;23.00;14.47;;;2.70;99.90;;;;;;5030870;28;20466;-55
2023/01/28 11:01:59;;;;;;;22.40;14.17;;;2.50;99.90;;;;;;5029922;28;20116;-53
2023/01/28 11:04:30;;;;;;;21.47;13.47;;;2.20;99.90;;;;;;5030283;28;20370;-51
2023/01/28 11:07:17;;;;;;;22.03;12.90;;;2.10;99.90;;;;;;5029882;28;20045;-55
2023/01/28 11:09:49;;;;;;;22.37;13.70;;;2.10;99.90;;;;;;5030652;28;20171;-52
2023/01/28 11:12:29;;;;;;;23.33;13.23;;;2.00;99.90;;;;;;5029389;28;20116;-47
2023/01/28 11:15:03;;;;;;;22.30;13.40;;;1.90;99.90;;;;;;5030272;28;20033;-44
2023/01/28 11:17:33;;;;;;;21.63;13.37;;;1.90;99.90;;;;;;5029719;28;20029;-43
2023/01/28 11:20:08;;;;;;;22.23;12.80;;;1.90;99.90;;;;;;5030536;28;20077;-44
2023/01/28 11:22:40;;;;;;;21.53;13.40;;;1.90;99.90;;;;;;5030065;28;20036;-44
2023/01/28 11:25:20;;;;;;;22.43;12.87;;;1.80;99.90;;;;;;5030266;28;20025;-44
2023/01/28 11:27:51;;;;;;;22.53;13.77;;;1.90;99.90;;;;;;5028979;28;20402;-43
2023/01/28 11:30:23;;;;;;;21.20;13.03;;;1.90;99.90;;;;;;5030315;28;20026;-44
2023/01/28 11:33:15;;;;;;;24.40;14.40;;;1.90;99.90;;;;;;5029970;28;20116;-43
2023/01/28 11:35:40;;;;;;;22.00;12.53;;;1.80;99.90;;;;;;5027284;28;20083;-43
2023/01/28 11:38:22;;;;;;;22.17;13.20;;;1.90;99.90;;;;;;5029546;28;20033;-43
2023/01/28 11:40:55;;;;;;;21.93;12.30;;;1.80;99.90;;;;;;5030107;28;20131;-43
2023/01/28 11:43:23;;;;;;;24.77;13.47;;;1.90;99.90;;;;;;5029122;28;20033;-44
2023/01/28 11:46:10;;;;;;;26.90;13.33;;;2.00;99.90;;;;;;5030207;28;20116;-43
2023/01/28 11:49:18;;;;;;;24.37;14.00;;;1.90;99.90;;;;;;5029408;28;20034;-44
2023/01/28 11:52:25;;;;;;;24.43;13.53;;;1.90;99.90;;;;;;5029433;28;20030;-44
2023/01/28 11:54:58;;;;;;;22.83;13.00;;;1.80;99.90;;;;;;5016423;28;20542;-44
2023/01/28 11:57:37;;;;;;;24.73;13.20;;;1.80;99.90;;;;;;5028118;28;20026;-44
2023/01/28 12:00:03;;;;;;;;;;;1.80;99.90;;;;;;5029994;28;20025;-43
2023/01/28 12:02:33;;;;;;;24.60;12.63;;;1.70;99.90;;;;;;5028973;28;19912;-44
2023/01/28 12:05:07;;;;;;;27.20;14.07;;;1.60;99.90;;;;;;5029298;28;20025;-44
2023/01/28 12:07:42;;;;;;;23.37;13.37;;;1.70;99.90;;;;;;5028783;28;20033;-45
2023/01/28 12:10:34;;;;;;;22.30;12.77;;;1.60;99.90;;;;;;5028600;28;20457;-44
2023/01/28 12:13:08;;;;;;;26.50;14.17;;;1.70;99.90;;;;;;5027600;28;20393;-45
2023/01/28 12:15:50;;;;;;;22.93;13.63;;;1.90;99.90;;;;;;5022990;28;20068;-47
2023/01/28 12:18:31;;;;;;;23.30;14.30;;;2.00;99.90;;;;;;5023888;28;20025;-45
2023/01/28 12:20:57;;;;;;;26.67;14.43;;;2.10;99.90;;;;;;5024662;28;20036;-44
2023/01/28 12:24:00;;;;;;;25.23;14.97;;;2.10;99.90;;;;;;5026028;28;20025;-46
2023/01/28 12:26:50;;;;;;;25.30;14.47;;;2.20;99.90;;;;;;5022622;28;20454;-44
2023/01/28 12:29:39;;;;;;;26.23;14.80;;;2.20;99.90;;;;;;5025220;28;20049;-44
2023/01/28 12:32:18;;;;;;;26.77;15.02;;;2.40;99.90;;;;;;5020479;28;20071;-44
2023/01/28 12:35:08;;;;;;;26.80;16.07;;;2.50;99.90;;;;;;5029094;28;20094;-44
2023/01/28 12:38:30;;;;;;;26.13;14.67;;;2.80;99.90;;;;;;5028421;28;20040;-44
2023/01/28 12:41:02;;;;;;;23.10;15.03;;;3.80;99.90;;;;;;5006271;28;20045;-44
2023/01/28 12:43:31;;;;;;;21.37;13.83;;;4.70;99.90;;;;;;5027989;28;20374;-45
2023/01/28 12:46:02;;;;;;;25.33;14.30;;;5.10;99.90;;;;;;5028993;28;20030;-45
2023/01/28 12:48:35;;;;;;;22.17;14.07;;;4.70;99.90;;;;;;5028452;28;20137;-44
2023/01/28 12:51:03;;;;;;;24.13;15.50;;;4.80;99.90;;;;;;5029280;28;20451;-45
2023/01/28 12:53:52;;;;;;;26.70;16.67;;;5.00;99.90;;;;;;5028657;28;20030;-45
2023/01/28 12:56:38;;;;;;;23.00;15.77;;;4.80;99.90;;;;;;5027651;28;20099;-45
2023/01/28 12:59:51;;;;;;;23.57;15.60;;;4.70;99.90;;;;;;5028880;28;20026;-51
2023/01/28 13:02:30;;;;;;;22.67;14.97;;;4.60;99.90;;;;;;4965062;28;20085;-47
2023/01/28 13:05:18;;;;;;;22.50;16.48;;;5.60;99.30;;;;;;5009407;28;20041;-47
2023/01/28 13:07:47;;;;;;;21.57;16.67;;;6.10;98.80;;;;;;5018302;28;20029;-44
2023/01/28 13:10:36;;;;;;;;;;;6.10;98.10;;;;;;5017948;28;20060;-42
2023/01/28 13:13:03;;;;;;;22.33;16.70;;;5.80;97.50;;;;;;5013023;28;19909;-48
2023/01/28 13:15:30;;;;;;;23.40;17.83;;;5.50;97.90;;;;;;5008860;28;20034;-45
2023/01/28 13:18:04;;;;;;;26.37;17.97;;;5.10;99.10;;;;;;5008284;28;20030;-43
2023/01/28 13:20:47;;;;;;;24.33;18.23;;;4.40;99.90;;;;;;5009126;28;20041;-46
2023/01/28 13:23:40;;;;;;;26.07;19.03;;;3.80;99.90;;;;;;5010181;28;20030;-47
2023/01/28 13:26:18;;;;;;;25.90;18.30;;;3.40;99.90;;;;;;5012673;28;20076;-46
2023/01/28 13:28:49;;;;;;;26.00;17.63;;;3.50;99.90;;;;;;5012567;28;20025;-45
2023/01/28 13:31:18;;;;;;;24.90;17.23;;;3.50;99.90;;;;;;5012161;28;20052;-45
2023/01/28 13:34:00;;;;;;;26.00;18.00;;;3.60;99.90;;;;;;5017439;28;20469;-49
2023/01/28 13:36:41;;;;;;;26.53;18.13;;;3.40;99.90;;;;;;5028424;28;20406;-48
2023/01/28 13:39:13;;;;;;;28.63;17.83;;;2.90;99.90;;;;;;5031906;28;20162;-46